Weather at Maribor Edvard Rusjan Airport

Public forecast

Using degrees Celsius for public forecast. Weather courtesy of forecast.io.

Current aviation weather report (METAR) for Maribor Edvard Rusjan Airport

2024/06/20 15:00 (retrieved 37 minutes ago)

LJMB 201500Z 13005KT 070V180 CAVOK 28/18 Q1020

Aviation forecast (TAF) for Maribor Edvard Rusjan Airport

2024/06/20 12:06 (retrieved 4 hours ago)

TAF LJMB 201100Z 2012/2112 09004KT CAVOK